Time;durP1;ratioP1;P1;durP2;ratioP2;P2;SDS_P1;SDS_P2;PMS_P1;PMS_P2;Temp;Humidity;BMP_temperature;BMP_pressure;BME280_temperature;BME280_humidity;BME280_pressure;Samples;Min_cycle;Max_cycle;Signal;HPM_P1;HPM_P2
2023/09/24 00:01:03;;;;;;;;;;;;;;;22.91;58.59;99133.38;5055812;28;19924;-88
2023/09/24 00:03:28;;;;;;;;;;;;;;;22.64;59.69;99129.25;5065097;28;19931;-89
2023/09/24 00:05:54;;;;;;;;;;;;;;;22.52;60.15;99135.50;5070777;28;20011;-88
2023/09/24 00:08:20;;;;;;;;;;;;;;;22.34;61.20;99141.38;5070817;28;20402;-88
2023/09/24 00:10:46;;;;;;;;;;;;;;;21.85;62.68;99147.97;5071071;28;19912;-89
2023/09/24 00:13:11;;;;;;;;;;;;;;;21.77;63.33;99144.34;5071179;28;20481;-88
2023/09/24 00:15:38;;;;;;;;;;;;;;;21.51;64.18;99142.91;5071303;28;19912;-88
2023/09/24 00:18:03;;;;;;;;;;;;;;;21.46;64.60;99150.66;5070644;28;19923;-88
2023/09/24 00:20:28;;;;;;;;;;;;;;;21.42;64.55;99151.94;5055006;28;20015;-88
2023/09/24 00:22:54;;;;;;;;;;;;;;;21.58;64.06;99148.53;5070636;28;19916;-88
2023/09/24 00:25:21;;;;;;;;;;;;;;;21.65;64.11;99153.34;5070934;28;19991;-88
2023/09/24 00:27:46;;;;;;;;;;;;;;;21.31;65.11;99147.13;5069947;28;19948;-89
2023/09/24 00:30:13;;;;;;;;;;;;;;;21.58;64.19;99151.38;5054468;28;19912;-88
2023/09/24 00:32:38;;;;;;;;;;;;;;;21.39;64.85;99147.06;5054173;28;19944;-88
2023/09/24 00:35:05;;;;;;;;;;;;;;;21.08;66.27;99150.50;5055178;28;19912;-87
2023/09/24 00:37:32;;;;;;;;;;;;;;;21.08;66.58;99150.50;5049914;28;19913;-89
2023/09/24 00:39:57;;;;;;;;;;;;;;;21.35;65.48;99154.81;5034205;28;19974;-88
2023/09/24 00:42:27;;;;;;;;;;;;;;;21.39;65.07;99153.56;5047864;28;19913;-88
2023/09/24 00:44:52;;;;;;;;;;;;;;;21.64;64.51;99161.09;5070609;28;20311;-89
2023/09/24 00:47:17;;;;;;;;;;;;;;;21.55;65.07;99166.44;5070342;28;19913;-88
2023/09/24 00:49:43;;;;;;;;;;;;;;;21.52;64.82;99162.41;5053480;28;19919;-89
2023/09/24 00:52:09;;;;;;;;;;;;;;;21.69;64.35;99159.88;5070376;28;19942;-88
2023/09/24 00:54:35;;;;;;;;;;;;;;;21.84;63.75;99160.53;5070135;28;19921;-88
2023/09/24 00:57:00;;;;;;;;;;;;;;;21.77;63.88;99164.25;5053677;28;19912;-88
2023/09/24 00:59:27;;;;;;;;;;;;;;;21.75;64.17;99155.34;5052150;28;20359;-88
2023/09/24 01:01:53;;;;;;;;;;;;;;;21.85;64.12;99156.50;5070246;28;19971;-88
2023/09/24 01:04:18;;;;;;;;;;;;;;;21.93;63.58;99163.72;5054644;28;19917;-88
2023/09/24 01:06:44;;;;;;;;;;;;;;;21.88;63.67;99158.50;5070106;28;19935;-88
2023/09/24 01:09:13;;;;;;;;;;;;;;;21.79;64.28;99158.16;5054078;28;19917;-88
2023/09/24 01:11:38;;;;;;;;;;;;;;;21.82;64.03;99160.16;5069638;28;20011;-88
2023/09/24 01:14:05;;;;;;;;;;;;;;;21.72;64.24;99159.84;5053580;28;20031;-88
2023/09/24 01:16:32;;;;;;;;;;;;;;;21.91;63.81;99154.78;5052999;28;19969;-89
2023/09/24 01:18:58;;;;;;;;;;;;;;;21.55;65.14;99166.44;5054179;28;19917;-88
2023/09/24 01:21:25;;;;;;;;;;;;;;;21.79;64.18;99158.16;5069561;28;20426;-88
2023/09/24 01:23:51;;;;;;;;;;;;;;;21.80;64.25;99162.63;5069907;28;19920;-88
2023/09/24 01:26:18;;;;;;;;;;;;;;;21.77;64.34;99167.09;5054112;28;19913;-88
2023/09/24 01:28:43;;;;;;;;;;;;;;;21.45;65.59;99153.94;5069017;28;19970;-88
2023/09/24 01:31:09;;;;;;;;;;;;;;;21.22;66.28;99149.59;5069455;28;19917;-88
2023/09/24 01:33:38;;;;;;;;;;;;;;;21.45;65.66;99151.09;5069758;28;19945;-88
2023/09/24 01:36:05;;;;;;;;;;;;;;;21.69;65.19;99142.81;5052679;28;20011;-88
2023/09/24 01:38:30;;;;;;;;;;;;;;;21.84;65.08;99152.81;5052198;28;20302;-88
2023/09/24 01:40:55;;;;;;;;;;;;;;;22.01;65.08;99162.44;5052192;28;19921;-88
2023/09/24 01:43:21;;;;;;;;;;;;;;;22.06;65.64;99161.19;5052776;28;20018;-88
2023/09/24 01:45:47;;;;;;;;;;;;;;;22.20;65.34;99157.34;5052214;28;19916;-88
2023/09/24 01:48:13;;;;;;;;;;;;;;;22.33;65.27;99168.25;5069253;28;19912;-89
2023/09/24 01:50:38;;;;;;;;;;;;;;;22.28;65.52;99169.50;5052793;28;19960;-88
2023/09/24 01:53:04;;;;;;;;;;;;;;;22.30;64.92;99170.69;5069279;28;19972;-88
2023/09/24 01:55:30;;;;;;;;;;;;;;;22.20;64.93;99171.59;5068924;28;19963;-88
2023/09/24 01:57:56;;;;;;;;;;;;;;;22.11;65.18;99171.31;5052310;28;19982;-88
2023/09/24 02:00:23;;;;;;;;;;;;;;;21.91;65.57;99165.41;5052124;28;20011;-88
2023/09/24 02:02:49;;;;;;;;;;;;;;;21.95;65.44;99158.41;5068958;28;19978;-88
2023/09/24 02:05:15;;;;;;;;;;;;;;;22.01;65.08;99153.91;5065346;28;19912;-88
2023/09/24 02:07:40;;;;;;;;;;;;;;;22.05;64.92;99155.88;5049806;28;20465;-88
2023/09/24 02:10:09;;;;;;;;;;;;;;;22.00;65.02;99152.28;5052377;28;19913;-88
2023/09/24 02:12:35;;;;;;;;;;;;;;;22.05;64.79;99156.72;5052154;28;19951;-88
2023/09/24 02:15:01;;;;;;;;;;;;;;;22.06;64.89;99154.66;5041073;28;19916;-88
2023/09/24 02:17:26;;;;;;;;;;;;;;;21.96;65.31;99156.38;5043468;28;20399;-88
2023/09/24 02:19:55;;;;;;;;;;;;;;;21.87;65.60;99151.19;5044554;28;19956;-88
2023/09/24 02:22:22;;;;;;;;;;;;;;;21.90;65.50;99153.19;5052176;28;20387;-88
2023/09/24 02:24:48;;;;;;;;;;;;;;;21.91;65.56;99154.78;5052097;28;19919;-88
2023/09/24 02:27:13;;;;;;;;;;;;;;;21.88;65.80;99162.13;5048522;28;19913;-87
2023/09/24 02:29:38;;;;;;;;;;;;;;;21.89;65.57;99151.56;5048612;28;19924;-88
2023/09/24 02:32:04;;;;;;;;;;;;;;;21.84;65.61;99149.16;5051065;28;19920;-88
2023/09/24 02:34:29;;;;;;;;;;;;;;;21.36;68.37;99148.72;5037353;28;20295;-88
2023/09/24 02:36:54;;;;;;;;;;;;;;;21.58;67.96;99159.91;5038693;28;20007;-88
2023/09/24 02:39:22;;;;;;;;;;;;;;;21.59;67.67;99162.34;5054360;28;19925;-88
2023/09/24 02:41:49;;;;;;;;;;;;;;;21.63;67.19;99162.31;5068355;28;19912;-88
2023/09/24 02:44:14;;;;;;;;;;;;;;;21.48;67.36;99158.78;5068392;28;20482;-88
2023/09/24 02:46:41;;;;;;;;;;;;;;;21.28;67.92;99147.13;5067794;28;19934;-88
2023/09/24 02:49:07;;;;;;;;;;;;;;;20.86;68.24;99150.59;5050519;28;19917;-88
2023/09/24 02:51:32;;;;;;;;;;;;;;;20.38;69.49;99159.69;5067778;28;19919;-88
2023/09/24 02:53:59;;;;;;;;;;;;;;;19.74;71.01;99160.16;5051949;28;19928;-88
2023/09/24 02:56:24;;;;;;;;;;;;;;;19.40;72.27;99171.88;5050943;28;19917;-88
2023/09/24 02:58:49;;;;;;;;;;;;;;;18.88;74.36;99169.25;5068337;28;20077;-89
2023/09/24 03:01:30;;;;;;;;;;;;;;;18.94;74.58;99165.69;5109576;27;20401;-74
2023/09/24 03:03:59;;;;;;;;;;;;;;;19.27;73.48;99157.28;5107143;28;19915;-74
2023/09/24 03:06:26;;;;;;;;;;;;;;;19.46;72.66;99158.91;5107510;28;19947;-74
2023/09/24 03:08:53;;;;;;;;;;;;;;;19.54;71.88;99159.75;5098325;28;20386;-74
2023/09/24 03:11:18;;;;;;;;;;;;;;;19.67;70.97;99163.00;5107949;28;19924;-74
2023/09/24 03:13:44;;;;;;;;;;;;;;;19.59;71.11;99161.38;5099608;28;20247;-74
2023/09/24 03:16:10;;;;;;;;;;;;;;;19.25;71.65;99165.38;5089032;28;19919;-74
2023/09/24 03:18:35;;;;;;;;;;;;;;;19.03;72.81;99170.16;5088164;28;19916;-74
2023/09/24 03:21:00;;;;;;;;;;;;;;;19.03;72.83;99173.00;5107935;28;19947;-74
2023/09/24 03:23:25;;;;;;;;;;;;;;;19.27;72.03;99170.63;5108428;28;20002;-74
2023/09/24 03:25:51;;;;;;;;;;;;;;;19.37;71.62;99169.84;5111436;28;19953;-74
2023/09/24 03:28:17;;;;;;;;;;;;;;;19.50;70.95;99171.06;5112899;28;19916;-74
2023/09/24 03:30:42;;;;;;;;;;;;;;;19.52;70.85;99170.69;5102028;28;19912;-74
2023/09/24 03:33:07;;;;;;;;;;;;;;;19.56;70.74;99173.53;5091497;28;19916;-74
2023/09/24 03:35:33;;;;;;;;;;;;;;;19.48;71.09;99179.19;5098491;28;19952;-74
2023/09/24 03:37:58;;;;;;;;;;;;;;;19.70;70.19;99179.19;5092050;28;19916;-74
2023/09/24 03:40:24;;;;;;;;;;;;;;;19.72;70.19;99182.44;5106994;28;19928;-74
2023/09/24 03:42:50;;;;;;;;;;;;;;;19.84;69.68;99180.41;5118329;28;20292;-74
2023/09/24 03:45:16;;;;;;;;;;;;;;;19.92;69.41;99184.88;5104877;28;20011;-74
2023/09/24 03:47:41;;;;;;;;;;;;;;;19.83;69.63;99185.28;5113475;28;19916;-74
2023/09/24 03:50:10;;;;;;;;;;;;;;;19.72;69.84;99188.13;5098302;28;19915;-74
2023/09/24 03:52:37;;;;;;;;;;;;;;;19.91;69.60;99183.25;5108360;28;19952;-74
2023/09/24 03:55:02;;;;;;;;;;;;;;;19.95;69.75;99183.28;5105958;28;19977;-74
2023/09/24 03:57:29;;;;;;;;;;;;;;;20.06;69.84;99187.72;5108128;28;19920;-74
2023/09/24 03:59:54;;;;;;;;;;;;;;;20.12;69.52;99196.66;5099248;28;19920;-74
2023/09/24 04:02:21;;;;;;;;;;;;;;;20.10;70.06;99206.78;5096731;28;19965;-74
2023/09/24 04:04:46;;;;;;;;;;;;;;;20.09;70.42;99196.66;5106221;28;20011;-74
2023/09/24 04:07:12;;;;;;;;;;;;;;;19.92;71.22;99196.22;5092004;28;20019;-72
2023/09/24 04:09:37;;;;;;;;;;;;;;;19.53;72.86;99195.00;5091937;28;20388;-74
2023/09/24 04:12:04;;;;;;;;;;;;;;;19.62;72.89;99205.94;5092381;28;19969;-73
2023/09/24 04:14:30;;;;;;;;;;;;;;;19.81;72.17;99213.25;5094787;28;19916;-73
2023/09/24 04:16:56;;;;;;;;;;;;;;;19.69;73.53;99211.63;5084615;28;19916;-73
2023/09/24 04:19:21;;;;;;;;;;;;;;;19.82;72.98;99214.84;5087158;28;19982;-75
2023/09/24 04:21:46;;;;;;;;;;;;;;;19.41;75.04;99221.69;5094689;28;20394;-74
2023/09/24 04:24:13;;;;;;;;;;;;;;;19.25;73.99;99221.25;5091850;28;20331;-75
2023/09/24 04:26:38;;;;;;;;;;;;;;;18.51;75.93;99227.78;5094505;28;19949;-75
2023/09/24 04:29:03;;;;;;;;;;;;;;;18.22;78.32;99221.91;5089722;28;19924;-75
2023/09/24 04:31:29;;;;;;;;;;;;;;;17.87;80.91;99229.69;5082166;28;19916;-75
2023/09/24 04:33:54;;;;;;;;;;;;;;;17.93;81.48;99230.16;5085447;28;19920;-75
2023/09/24 04:36:19;;;;;;;;;;;;;;;18.41;79.88;99240.66;5072321;28;19920;-71
2023/09/24 04:38:46;;;;;;;;;;;;;;;18.47;79.47;99238.28;5087472;28;19917;-74
2023/09/24 04:41:12;;;;;;;;;;;;;;;18.69;78.56;99241.22;5080495;28;19924;-74
2023/09/24 04:43:37;;;;;;;;;;;;;;;18.86;77.62;99231.19;5108437;28;19918;-74
2023/09/24 04:46:04;;;;;;;;;;;;;;;19.08;77.28;99240.66;5097239;28;20306;-74
2023/09/24 04:48:30;;;;;;;;;;;;;;;19.23;76.80;99238.66;5099449;28;20413;-73
2023/09/24 04:50:56;;;;;;;;;;;;;;;19.30;76.49;99243.53;5088059;28;20329;-73
2023/09/24 04:53:21;;;;;;;;;;;;;;;19.09;77.36;99253.59;5105094;28;19968;-73
2023/09/24 04:55:47;;;;;;;;;;;;;;;18.87;78.71;99261.16;5098081;28;20378;-73
2023/09/24 04:58:12;;;;;;;;;;;;;;;18.83;78.86;99258.31;5110233;28;19915;-73
2023/09/24 05:00:37;;;;;;;;;;;;;;;18.86;79.28;99254.69;5091665;28;20402;-73
2023/09/24 05:03:03;;;;;;;;;;;;;;;19.07;77.87;99250.38;5102898;28;19919;-73
2023/09/24 05:05:28;;;;;;;;;;;;;;;19.05;77.61;99259.25;5090037;28;19972;-73
2023/09/24 05:07:53;;;;;;;;;;;;;;;19.23;76.35;99255.66;5106714;28;19919;-71
2023/09/24 05:10:18;;;;;;;;;;;;;;;19.06;76.07;99257.22;5080246;28;20002;-72
2023/09/24 05:12:44;;;;;;;;;;;;;;;19.17;75.57;99255.25;5096283;28;20378;-72
2023/09/24 05:15:09;;;;;;;;;;;;;;;18.95;76.03;99254.31;5091209;28;19922;-71
2023/09/24 05:17:34;;;;;;;;;;;;;;;19.05;75.78;99252.75;5090850;28;19923;-74
2023/09/24 05:20:00;;;;;;;;;;;;;;;19.08;75.91;99258.44;5096552;28;20026;-74
2023/09/24 05:22:27;;;;;;;;;;;;;;;18.85;77.19;99260.72;5091732;28;19922;-74
2023/09/24 05:24:53;;;;;;;;;;;;;;;18.78;78.45;99268.00;5101540;28;20382;-75
2023/09/24 05:27:18;;;;;;;;;;;;;;;18.69;80.06;99264.69;5087689;28;19920;-74
2023/09/24 05:29:45;;;;;;;;;;;;;;;18.70;80.10;99257.00;5092332;28;20448;-75
2023/09/24 05:32:10;;;;;;;;;;;;;;;18.85;80.05;99266.41;5090798;28;20403;-74
2023/09/24 05:34:36;;;;;;;;;;;;;;;19.22;79.21;99262.53;5077626;28;19973;-74
2023/09/24 05:37:03;;;;;;;;;;;;;;;19.51;78.24;99271.16;5102386;28;19965;-74
2023/09/24 05:39:29;;;;;;;;;;;;;;;19.76;76.81;99268.34;5095662;28;20057;-72
2023/09/24 05:41:55;;;;;;;;;;;;;;;19.92;76.44;99261.50;5086680;28;20023;-72
2023/09/24 05:44:24;;;;;;;;;;;;;;;20.20;75.37;99268.44;5090923;28;19916;-72
2023/09/24 05:46:50;;;;;;;;;;;;;;;20.30;74.82;99261.94;5087719;28;19920;-71
2023/09/24 05:49:16;;;;;;;;;;;;;;;19.96;76.44;99268.03;5082093;28;19965;-73
2023/09/24 05:51:41;;;;;;;;;;;;;;;19.76;78.05;99268.34;5087341;28;19924;-71
2023/09/24 05:54:07;;;;;;;;;;;;;;;20.32;76.10;99275.72;5092442;28;19925;-70
2023/09/24 05:56:32;;;;;;;;;;;;;;;20.59;74.77;99273.25;5096799;28;19915;-71
2023/09/24 05:58:58;;;;;;;;;;;;;;;20.96;73.54;99270.34;5101007;28;20366;-71
2023/09/24 06:01:23;;;;;;;;;;;;;;;21.24;72.55;99280.00;5091037;28;19924;-71
2023/09/24 06:03:48;;;;;;;;;;;;;;;21.37;71.95;99278.31;5104203;28;19919;-71
2023/09/24 06:06:14;;;;;;;;;;;;;;;21.47;71.28;99290.88;5090381;28;19988;-72
2023/09/24 06:08:39;;;;;;;;;;;;;;;21.57;71.26;99292.03;5093018;28;20442;-72
2023/09/24 06:11:05;;;;;;;;;;;;;;;21.80;71.95;99290.69;5097173;28;19922;-74
2023/09/24 06:13:30;;;;;;;;;;;;;;;22.11;71.10;99296.59;5098887;28;19956;-70
2023/09/24 06:15:59;;;;;;;;;;;;;;;22.23;68.80;99290.41;5099112;28;19920;-73
2023/09/24 06:18:25;;;;;;;;;;;;;;;22.36;69.69;99296.38;5081092;28;19963;-73
2023/09/24 06:20:50;;;;;;;;;;;;;;;22.52;69.82;99298.72;5097942;28;20016;-72
2023/09/24 06:23:15;;;;;;;;;;;;;;;22.51;69.91;99287.75;5083082;28;20693;-74
2023/09/24 06:25:41;;;;;;;;;;;;;;;22.63;69.26;99294.97;5098740;28;19925;-74
2023/09/24 06:28:12;;;;;;;;;;;;;;;22.71;68.26;99285.09;5077936;28;20365;-70
2023/09/24 06:30:38;;;;;;;;;;;;;;;22.97;69.38;99291.34;5103517;28;19939;-68
2023/09/24 06:33:06;;;;;;;;;;;;;;;22.99;66.65;99283.16;5099172;28;19968;-71
2023/09/24 06:35:33;;;;;;;;;;;;;;;22.99;67.15;99280.31;5100386;28;19959;-76
2023/09/24 06:37:59;;;;;;;;;;;;;;;23.06;66.46;99277.41;5106281;28;19923;-74
2023/09/24 06:40:24;;;;;;;;;;;;;;;23.15;63.98;99285.44;5094144;28;19919;-73
2023/09/24 06:42:49;;;;;;;;;;;;;;;23.22;64.51;99291.03;5104404;28;19998;-71
2023/09/24 06:45:15;;;;;;;;;;;;;;;23.27;64.77;99292.63;5102040;28;19922;-69
2023/09/24 06:47:40;;;;;;;;;;;;;;;23.32;65.22;99294.22;5102982;28;19923;-72
2023/09/24 06:50:06;;;;;;;;;;;;;;;23.39;61.19;99294.94;5107485;28;20301;-73
2023/09/24 06:52:32;;;;;;;;;;;;;;;23.45;60.82;99292.41;5087099;28;19954;-70
2023/09/24 06:54:58;;;;;;;;;;;;;;;23.57;60.79;99293.91;5102909;28;19943;-72
2023/09/24 06:57:23;;;;;;;;;;;;;;;23.54;62.12;99295.56;5099310;28;20038;-70
2023/09/24 06:59:48;;;;;;;;;;;;;;;23.68;63.09;99296.59;5089330;28;20329;-75
2023/09/24 07:02:14;;;;;;;;;;;;;;;23.92;62.47;99296.66;5091908;28;19916;-71
2023/09/24 07:04:40;;;;;;;;;;;;;;;24.20;63.29;99297.50;5097259;28;19912;-69
2023/09/24 07:07:07;;;;;;;;;;;;;;;24.59;60.86;99298.03;5089218;28;19931;-72
2023/09/24 07:09:33;;;;;;;;;;;;;;;24.87;59.17;99298.81;5081936;28;20003;-73
2023/09/24 07:11:58;;;;;;;;;;;;;;;25.26;57.62;99291.47;5084691;28;20072;-72
2023/09/24 07:14:24;;;;;;;;;;;;;;;25.49;59.52;99301.25;5093254;28;19920;-71
2023/09/24 07:16:49;;;;;;;;;;;;;;;25.69;57.50;99303.25;5083565;28;19923;-71
2023/09/24 07:19:14;;;;;;;;;;;;;;;26.12;54.16;99302.28;5071134;28;20413;-73
2023/09/24 07:21:40;;;;;;;;;;;;;;;27.10;53.68;99298.97;5102710;28;19949;-74
2023/09/24 07:24:06;;;;;;;;;;;;;;;26.94;50.29;99303.53;5088144;28;19920;-73
2023/09/24 07:26:31;;;;;;;;;;;;;;;26.56;50.95;99301.22;5087077;28;19920;-76
2023/09/24 07:28:57;;;;;;;;;;;;;;;26.79;54.81;99294.47;5075411;28;19931;-74
2023/09/24 07:31:23;;;;;;;;;;;;;;;26.84;52.49;99296.75;5079542;28;19916;-73
2023/09/24 07:33:49;;;;;;;;;;;;;;;26.81;50.37;99294.81;5074753;28;19997;-74
2023/09/24 07:36:14;;;;;;;;;;;;;;;26.68;51.79;99299.69;5094119;28;19965;-75
2023/09/24 07:38:40;;;;;;;;;;;;;;;26.59;53.15;99288.84;5088653;28;19989;-73
2023/09/24 07:41:07;;;;;;;;;;;;;;;26.66;52.48;99297.25;5071854;28;19920;-72
2023/09/24 07:43:33;;;;;;;;;;;;;;;27.49;52.32;99297.00;5103481;28;19958;-76
2023/09/24 07:45:58;;;;;;;;;;;;;;;27.24;50.39;99294.91;5085568;28;19956;-74
2023/09/24 07:48:24;;;;;;;;;;;;;;;27.25;50.71;99277.19;5095192;28;19922;-72
2023/09/24 07:50:53;;;;;;;;;;;;;;;27.70;50.38;99281.25;5102235;28;19967;-70
2023/09/24 07:53:19;;;;;;;;;;;;;;;29.24;49.92;99284.28;5090266;28;20007;-74
2023/09/24 07:55:45;;;;;;;;;;;;;;;29.09;47.83;99283.22;5104173;28;19995;-72
2023/09/24 07:58:10;;;;;;;;;;;;;;;28.81;45.32;99274.31;5100775;28;19969;-74
2023/09/24 08:00:36;;;;;;;;;;;;;;;28.58;47.90;99282.09;5086535;28;20015;-73
2023/09/24 08:03:02;;;;;;;;;;;;;;;28.83;48.29;99283.28;5085086;28;20016;-74
2023/09/24 08:05:27;;;;;;;;;;;;;;;29.40;45.76;99291.91;5106895;28;19955;-73
2023/09/24 08:07:52;;;;;;;;;;;;;;;29.12;45.57;99294.56;5091801;28;19916;-73
2023/09/24 08:10:18;;;;;;;;;;;;;;;28.89;45.61;99290.09;5089775;28;20310;-69
2023/09/24 08:12:43;;;;;;;;;;;;;;;28.80;46.45;99292.84;5083241;28;19916;-75
2023/09/24 08:15:08;;;;;;;;;;;;;;;28.57;47.40;99281.28;5081203;28;20401;-72
2023/09/24 08:17:34;;;;;;;;;;;;;;;28.23;47.37;99267.66;5099333;28;19988;-73
2023/09/24 08:19:59;;;;;;;;;;;;;;;27.78;48.37;99267.44;5111076;28;19916;-72
2023/09/24 08:22:25;;;;;;;;;;;;;;;27.80;47.93;99267.78;5078420;28;20283;-72
2023/09/24 08:24:50;;;;;;;;;;;;;;;27.65;48.42;99278.13;5074623;28;20294;-73
2023/09/24 08:27:15;;;;;;;;;;;;;;;27.49;47.35;99274.03;5097566;28;19923;-73
2023/09/24 08:29:41;;;;;;;;;;;;;;;27.42;48.27;99268.53;5080309;28;20708;-74
2023/09/24 08:32:06;;;;;;;;;;;;;;;27.36;48.63;99267.47;5086529;28;20314;-75
2023/09/24 08:34:32;;;;;;;;;;;;;;;27.25;48.23;99262.84;5079532;28;19927;-72
2023/09/24 08:36:57;;;;;;;;;;;;;;;27.35;48.56;99269.56;5079454;28;19928;-73
2023/09/24 08:39:22;;;;;;;;;;;;;;;27.56;47.38;99261.56;5074373;28;19916;-72
2023/09/24 08:41:47;;;;;;;;;;;;;;;27.10;47.86;99261.66;5084040;28;20344;-74
2023/09/24 08:44:13;;;;;;;;;;;;;;;27.25;48.18;99259.19;5084277;28;19934;-75
2023/09/24 08:46:39;;;;;;;;;;;;;;;27.61;47.33;99261.78;5090585;28;19969;-74
2023/09/24 08:49:05;;;;;;;;;;;;;;;27.86;47.23;99257.31;5096925;28;19920;-74
2023/09/24 08:51:32;;;;;;;;;;;;;;;28.06;46.47;99255.50;5088942;28;19919;-75
2023/09/24 08:53:58;;;;;;;;;;;;;;;28.00;46.80;99258.16;5076358;28;19921;-74
2023/09/24 08:56:26;;;;;;;;;;;;;;;27.99;46.66;99247.88;5106080;28;19916;-74
2023/09/24 08:58:51;;;;;;;;;;;;;;;28.02;46.76;99250.66;5079362;28;19970;-76
2023/09/24 09:01:16;;;;;;;;;;;;;;;27.98;46.01;99260.66;5073658;28;19924;-74
2023/09/24 09:03:42;;;;;;;;;;;;;;;28.11;46.18;99247.06;5077107;28;19924;-74
2023/09/24 09:06:07;;;;;;;;;;;;;;;27.99;46.77;99253.63;5082787;28;19973;-74
2023/09/24 09:08:51;;;;;;;;;;;;;;;28.28;45.22;99253.50;5083963;28;20351;-74
2023/09/24 09:11:19;;;;;;;;;;;;;;;28.41;46.20;99252.69;5091734;28;19927;-73
2023/09/24 09:13:45;;;;;;;;;;;;;;;28.29;44.51;99243.63;5080790;28;19944;-74
2023/09/24 09:16:14;;;;;;;;;;;;;;;28.61;44.66;99246.66;5085162;28;19916;-74
2023/09/24 09:18:39;;;;;;;;;;;;;;;28.68;44.74;99240.63;5083086;28;19923;-75
2023/09/24 09:21:05;;;;;;;;;;;;;;;28.94;43.71;99226.16;5090032;28;20321;-75
2023/09/24 09:23:30;;;;;;;;;;;;;;;28.96;44.17;99235.16;5098698;28;19923;-75
2023/09/24 09:25:55;;;;;;;;;;;;;;;28.62;43.92;99227.31;5098269;28;19916;-73
2023/09/24 09:28:22;;;;;;;;;;;;;;;28.60;44.11;99230.66;5089719;28;19973;-74
2023/09/24 09:30:59;;;;;;;;;;;;;;;28.44;44.17;99226.69;5073665;28;19916;-75
2023/09/24 09:33:25;;;;;;;;;;;;;;;28.52;45.10;99226.44;5071635;28;19935;-72
2023/09/24 09:35:51;;;;;;;;;;;;;;;28.97;44.13;99221.53;5087015;28;19920;-77
2023/09/24 09:38:17;;;;;;;;;;;;;;;28.82;44.40;99222.09;5088664;28;19920;-76
2023/09/24 09:40:42;;;;;;;;;;;;;;;29.18;43.67;99211.28;5105647;28;19916;-73
2023/09/24 09:43:09;;;;;;;;;;;;;;;29.05;43.10;99216.31;5084016;28;19922;-73
2023/09/24 09:45:35;;;;;;;;;;;;;;;29.04;43.16;99220.47;5085437;28;19924;-74
2023/09/24 09:48:03;;;;;;;;;;;;;;;29.06;42.03;99218.75;5096871;28;19923;-73
2023/09/24 09:50:30;;;;;;;;;;;;;;;29.15;42.16;99212.22;5107607;28;19944;-72
2023/09/24 09:52:57;;;;;;;;;;;;;;;29.32;42.36;99209.13;5094295;28;19932;-73
2023/09/24 09:55:23;;;;;;;;;;;;;;;29.54;42.67;99209.13;5098482;28;19924;-73
2023/09/24 09:57:49;;;;;;;;;;;;;;;29.69;41.85;99201.50;5088705;28;19916;-71
2023/09/24 10:00:16;;;;;;;;;;;;;;;29.89;41.30;99206.03;5076634;28;19981;-76
2023/09/24 10:02:43;;;;;;;;;;;;;;;29.72;41.36;99196.88;5095871;28;19915;-72
2023/09/24 10:05:10;;;;;;;;;;;;;;;29.80;40.60;99198.16;5104539;28;19911;-73
2023/09/24 10:07:38;;;;;;;;;;;;;;;30.01;41.17;99195.66;5093486;28;20322;-73
2023/09/24 10:10:22;;;;;;;;;;;;;;;29.96;39.57;99202.84;5085636;28;20374;-73
2023/09/24 10:12:48;;;;;;;;;;;;;;;29.76;40.30;99197.50;5085624;28;19923;-73
2023/09/24 10:15:23;;;;;;;;;;;;;;;29.63;40.84;99186.13;5083126;28;19920;-73
2023/09/24 10:18:08;;;;;;;;;;;;;;;29.49;41.93;99180.91;5080395;28;20395;-74
2023/09/24 10:20:49;;;;;;;;;;;;;;;29.65;41.40;99191.38;5086684;28;19920;-72
2023/09/24 10:23:30;;;;;;;;;;;;;;;29.90;40.81;99190.34;5080794;28;19921;-73
2023/09/24 10:26:03;;;;;;;;;;;;;;;30.12;40.28;99189.47;5087577;28;20082;-76
2023/09/24 10:28:47;;;;;;;;;;;;;;;30.09;40.53;99182.59;5103983;28;19922;-74
2023/09/24 10:31:12;;;;;;;;;;;;;;;30.13;38.89;99185.31;5082042;28;19931;-75
2023/09/24 10:33:52;;;;;;;;;;;;;;;30.17;39.55;99182.25;5070838;28;20003;-74
2023/09/24 10:36:19;;;;;;;;;;;;;;;30.13;39.11;99182.44;5088632;28;20342;-74
2023/09/24 10:39:04;;;;;;;;;;;;;;;30.32;38.63;99168.03;5095816;28;20012;-74
2023/09/24 10:41:30;;;;;;;;;;;;;;;30.47;38.16;99168.19;5083385;28;19974;-72
2023/09/24 10:44:14;;;;;;;;;;;;;;;30.30;39.60;99162.75;5077978;28;19967;-73
2023/09/24 10:46:39;;;;;;;;;;;;;;;30.66;39.33;99161.19;5081184;28;19916;-72
2023/09/24 10:49:04;;;;;;;;;;;;;;;30.85;38.91;99163.22;5090285;28;19918;-72
2023/09/24 10:51:30;;;;;;;;;;;;;;;30.91;39.30;99161.28;5078300;28;19948;-73
2023/09/24 10:54:14;;;;;;;;;;;;;;;30.62;39.09;99163.38;5089550;28;19920;-72
2023/09/24 10:56:39;;;;;;;;;;;;;;;30.57;39.57;99158.25;5089878;28;19922;-72
2023/09/24 10:59:04;;;;;;;;;;;;;;;30.59;38.74;99149.91;5088360;28;19916;-72
2023/09/24 11:01:30;;;;;;;;;;;;;;;30.87;39.27;99149.13;5091619;28;19989;-73
2023/09/24 11:03:55;;;;;;;;;;;;;;;30.61;39.81;99143.69;5102312;28;19912;-71
2023/09/24 11:06:28;;;;;;;;;;;;;;;30.92;39.65;99148.44;5078218;28;19975;-69
2023/09/24 11:08:54;;;;;;;;;;;;;;;30.59;38.45;99144.16;5085191;28;19919;-72
2023/09/24 11:11:19;;;;;;;;;;;;;;;30.58;38.97;99133.91;5078223;28;19923;-72
2023/09/24 11:13:45;;;;;;;;;;;;;;;30.64;38.93;99134.88;5087733;28;19916;-72
2023/09/24 11:16:10;;;;;;;;;;;;;;;30.81;38.77;99120.88;5090124;28;19964;-73
2023/09/24 11:18:36;;;;;;;;;;;;;;;31.05;38.67;99125.19;5076240;28;19916;-72
2023/09/24 11:21:01;;;;;;;;;;;;;;;31.05;37.64;99117.31;5078449;28;20152;-72
2023/09/24 11:23:34;;;;;;;;;;;;;;;31.03;37.92;99119.09;5094695;28;19939;-72
2023/09/24 11:26:00;;;;;;;;;;;;;;;30.99;37.85;99121.34;5088982;28;19932;-72
2023/09/24 11:28:30;;;;;;;;;;;;;;;30.75;37.51;99113.38;5082247;28;19916;-72
2023/09/24 11:30:55;;;;;;;;;;;;;;;30.75;37.60;99119.13;5083090;28;19952;-72
2023/09/24 11:33:22;;;;;;;;;;;;;;;30.58;38.36;99119.47;5091874;28;19959;-72
2023/09/24 11:35:48;;;;;;;;;;;;;;;30.73;38.15;99121.72;5092099;28;20584;-72
2023/09/24 11:38:25;;;;;;;;;;;;;;;31.01;37.70;99118.75;5077988;28;20010;-72
2023/09/24 11:40:50;;;;;;;;;;;;;;;31.17;37.24;99120.47;5081760;28;19920;-72
2023/09/24 11:43:15;;;;;;;;;;;;;;;31.26;37.61;99113.91;5092065;28;20302;-72
2023/09/24 11:45:46;;;;;;;;;;;;;;;31.30;37.81;99105.88;5075302;28;19962;-73
2023/09/24 11:48:21;;;;;;;;;;;;;;;31.12;37.60;99104.59;5085238;28;19931;-72
2023/09/24 11:50:48;;;;;;;;;;;;;;;30.78;38.02;99121.09;5080855;28;20378;-72
2023/09/24 11:53:13;;;;;;;;;;;;;;;30.50;38.39;99116.13;5081420;28;21178;-72
2023/09/24 11:55:40;;;;;;;;;;;;;;;30.65;38.38;99098.97;5078085;28;19935;-72
2023/09/24 11:58:06;;;;;;;;;;;;;;;30.83;37.91;99111.75;5086911;28;19969;-72
2023/09/24 12:00:33;;;;;;;;;;;;;;;31.03;37.68;99105.44;5085828;28;19934;-72
2023/09/24 12:02:59;;;;;;;;;;;;;;;30.85;38.00;99106.28;5093105;28;19923;-72
2023/09/24 12:05:25;;;;;;;;;;;;;;;31.07;37.99;99091.66;5091136;28;19920;-72
2023/09/24 12:07:50;;;;;;;;;;;;;;;30.87;38.41;99088.50;5084884;28;19972;-73
2023/09/24 12:10:17;;;;;;;;;;;;;;;30.74;38.25;99103.94;5089948;28;19963;-72
2023/09/24 12:12:43;;;;;;;;;;;;;;;30.89;38.20;99100.34;5076403;28;19998;-72
2023/09/24 12:15:08;;;;;;;;;;;;;;;30.90;37.71;99099.88;5080962;28;20386;-73
2023/09/24 12:17:34;;;;;;;;;;;;;;;31.13;37.82;99105.41;5085328;28;19927;-72
2023/09/24 12:19:59;;;;;;;;;;;;;;;31.21;38.24;99103.78;5091472;28;20039;-73
2023/09/24 12:22:24;;;;;;;;;;;;;;;31.09;38.37;99105.59;5093045;28;20010;-73
2023/09/24 12:24:49;;;;;;;;;;;;;;;31.04;38.26;99098.38;5083572;28;20759;-72
2023/09/24 12:27:15;;;;;;;;;;;;;;;31.24;38.03;99094.97;5082924;28;19923;-72
2023/09/24 12:29:40;;;;;;;;;;;;;;;31.28;38.33;99094.00;5082352;28;19916;-72
2023/09/24 12:32:05;;;;;;;;;;;;;;;31.44;38.16;99081.25;5092640;28;19969;-72
2023/09/24 12:34:31;;;;;;;;;;;;;;;31.39;37.56;99082.72;5092067;28;20301;-72
2023/09/24 12:36:56;;;;;;;;;;;;;;;31.60;36.91;99082.91;5088552;28;20716;-73
2023/09/24 12:39:23;;;;;;;;;;;;;;;31.91;35.96;99058.66;5087836;28;19927;-72
2023/09/24 12:41:49;;;;;;;;;;;;;;;31.50;37.65;99054.09;5085216;28;19928;-74
2023/09/24 12:44:14;;;;;;;;;;;;;;;31.50;37.47;99062.75;5077877;28;19920;-73